Time;durP1;ratioP1;P1;durP2;ratioP2;P2;SDS_P1;SDS_P2;PMS_P1;PMS_P2;Temp;Humidity;BMP_temperature;BMP_pressure;BME280_temperature;BME280_humidity;BME280_pressure;Samples;Min_cycle;Max_cycle;Signal;HPM_P1;HPM_P2
2022/12/12 00:02:22;;;;;;;;;;;;;;;;;;5030778;28;19967;-66
2022/12/12 00:04:47;;;;;;;;;;;;;;;;;;5031074;28;20321;-65
2022/12/12 00:07:13;;;;;;;;;;;;;;;;;;5017351;28;19932;-66
2022/12/12 00:09:38;;;;;;;;;;;;;;;;;;5017820;28;19928;-66
2022/12/12 00:12:03;;;;;;;;;;;;;;;;;;5022992;28;20080;-66
2022/12/12 00:14:28;;;;;;;;;;;;;;;;;;5049454;28;19924;-66
2022/12/12 00:16:56;;;;;;;;;;;;;;;;;;5037380;28;20288;-66
2022/12/12 00:19:24;;;;;;;;;;;;;;;;;;5046279;28;19928;-66
2022/12/12 00:21:49;;;;;;;;;;;;;;;;;;5019329;28;20029;-66
2022/12/12 00:24:14;;;;;;;;;;;;;;;;;;5051292;28;20606;-66
2022/12/12 00:26:40;;;;;;;;;;;;;;;;;;5049043;28;20394;-65
2022/12/12 00:29:10;;;;;;;;;;;;;;;;;;5049430;28;19946;-66
2022/12/12 00:31:35;;;;;;;;;;;;;;;;;;5036297;28;19997;-67
2022/12/12 00:34:08;;;;;;;;;;;;;;;;;;5036555;28;19927;-67
2022/12/12 00:36:33;;;;;;;;;;;;;;;;;;5031085;28;19917;-65
2022/12/12 00:39:01;;;;;;;;;;;;;;;;;;5049956;28;19921;-66
2022/12/12 00:41:27;;;;;;;;;;;;;;;;;;5019124;28;19924;-66
2022/12/12 00:43:52;;;;;;;;;;;;;;;;;;5032995;28;20448;-66
2022/12/12 00:46:18;;;;;;;;;;;;;;;;;;5036950;28;20287;-66
2022/12/12 00:48:45;;;;;;;;;;;;;;;;;;5031506;28;19924;-66
2022/12/12 00:51:10;;;;;;;;;;;;;;;;;;5029211;28;21569;-66
2022/12/12 00:53:36;;;;;;;;;;;;;;;;;;5035619;28;19931;-66
2022/12/12 00:56:02;;;;;;;;;;;;;;;;;;5044192;28;19920;-66
2022/12/12 00:58:27;;;;;;;;;;;;;;;;;;5025545;28;19924;-66
2022/12/12 01:00:52;;;;;;;;;;;;;;;;;;5032619;28;20449;-65
2022/12/12 01:03:18;;;;;;;;;;;;;;;;;;5029893;28;21040;-64
2022/12/12 01:05:43;;;;;;;;;;;;;;;;;;5018008;28;19916;-65
2022/12/12 01:08:11;;;;;;;;;;;;;;;;;;5033057;28;19920;-66
2022/12/12 01:10:36;;;;;;;;;;;;;;;;;;5018508;28;19990;-66
2022/12/12 01:13:01;;;;;;;;;;;;;;;;;;5044553;28;19956;-66
2022/12/12 01:15:27;;;;;;;;;;;;;;;;;;5031351;28;20500;-66
2022/12/12 01:17:52;;;;;;;;;;;;;;;;;;5046324;28;20436;-66
2022/12/12 01:20:20;;;;;;;;;;;;;;;;;;5027625;28;20108;-65
2022/12/12 01:22:46;;;;;;;;;;;;;;;;;;5049018;28;20488;-65
2022/12/12 01:25:11;;;;;;;;;;;;;;;;;;5051377;28;20471;-66
2022/12/12 01:27:37;;;;;;;;;;;;;;;;;;5048145;28;20376;-67
2022/12/12 01:30:02;;;;;;;;;;;;;;;;;;5028646;28;19916;-64
2022/12/12 01:32:28;;;;;;;;;;;;;;;;;;5050910;28;19921;-65
2022/12/12 01:34:53;;;;;;;;;;;;;;;;;;5048506;28;20116;-66
2022/12/12 01:37:18;;;;;;;;;;;;;;;;;;5052414;28;20454;-65
2022/12/12 01:39:44;;;;;;;;;;;;;;;;;;5051216;28;19970;-65
2022/12/12 01:42:10;;;;;;;;;;;;;;;;;;5043555;28;19982;-64
2022/12/12 01:44:36;;;;;;;;;;;;;;;;;;5050440;28;19920;-65
2022/12/12 01:47:02;;;;;;;;;;;;;;;;;;5052426;28;20508;-65
2022/12/12 01:49:29;;;;;;;;;;;;;;;;;;5045676;28;19920;-66
2022/12/12 01:51:55;;;;;;;;;;;;;;;;;;5049027;28;19920;-65
2022/12/12 01:54:20;;;;;;;;;;;;;;;;;;5048924;28;20635;-65
2022/12/12 02:00:02;;;;;;;;;;;;;;;;;;5046334;28;19927;-65
2022/12/12 02:02:27;;;;;;;;;;;;;;;;;;5033985;28;20393;-64
2022/12/12 02:04:52;;;;;;;;;;;;;;;;;;5050839;28;20042;-64
2022/12/12 02:07:18;;;;;;;;;;;;;;;;;;5023501;28;20347;-65
2022/12/12 02:09:43;;;;;;;;;;;;;;;;;;5048343;28;20006;-65
2022/12/12 02:12:09;;;;;;;;;;;;;;;;;;5033127;28;20768;-65
2022/12/12 02:14:35;;;;;;;;;;;;;;;;;;5046707;28;19919;-66
2022/12/12 02:17:00;;;;;;;;;;;;;;;;;;5051364;28;20501;-65
2022/12/12 02:19:26;;;;;;;;;;;;;;;;;;5047490;28;20863;-65
2022/12/12 02:21:51;;;;;;;;;;;;;;;;;;5049145;28;19961;-66
2022/12/12 02:24:17;;;;;;;;;;;;;;;;;;5049954;28;19931;-66
2022/12/12 02:26:42;;;;;;;;;;;;;;;;;;5032853;28;19984;-65
2022/12/12 02:29:08;;;;;;;;;;;;;;;;;;5049995;28;20064;-65
2022/12/12 02:31:36;;;;;;;;;;;;;;;;;;5048906;28;20009;-65
2022/12/12 02:34:02;;;;;;;;;;;;;;;;;;5048365;28;20636;-65
2022/12/12 02:36:27;;;;;;;;;;;;;;;;;;5050933;28;20200;-63
2022/12/12 02:38:53;;;;;;;;;;;;;;;;;;5048134;28;20349;-64
2022/12/12 02:41:19;;;;;;;;;;;;;;;;;;5047548;28;20007;-64
2022/12/12 02:43:45;;;;;;;;;;;;;;;;;;5048828;28;20028;-64
2022/12/12 02:46:10;;;;;;;;;;;;;;;;;;5049501;28;19924;-65
2022/12/12 02:48:36;;;;;;;;;;;;;;;;;;5044589;28;19916;-64
2022/12/12 02:51:02;;;;;;;;;;;;;;;;;;5030632;28;19930;-64
2022/12/12 02:53:29;;;;;;;;;;;;;;;;;;5045475;28;19966;-64
2022/12/12 02:55:55;;;;;;;;;;;;;;;;;;5046674;28;19920;-64
2022/12/12 02:58:23;;;;;;;;;;;;;;;;;;5048321;28;20642;-64
2022/12/12 03:00:48;;;;;;;;;;;;;;;;;;5017097;28;19920;-64
2022/12/12 03:08:41;;;;;;;;;;;;;;;;;;5046132;28;19943;-63
2022/12/12 03:11:07;;;;;;;;;;;;;;;;;;5047222;28;19920;-65
2022/12/12 03:13:32;;;;;;;;;;;;;;;;;;5048530;28;19927;-64
2022/12/12 03:16:00;;;;;;;;;;;;;;;;;;5029032;28;20292;-64
2022/12/12 03:18:26;;;;;;;;;;;;;;;;;;5044679;28;19932;-64
2022/12/12 03:20:51;;;;;;;;;;;;;;;;;;5047426;28;20009;-63
2022/12/12 03:23:19;;;;;;;;;;;;;;;;;;5048877;28;19926;-64
2022/12/12 03:25:44;;;;;;;;;;;;;;;;;;5028075;28;19920;-64
2022/12/12 03:28:10;;;;;;;;;;;;;;;;;;5045965;28;20617;-63
2022/12/12 03:30:35;;;;;;;;;;;;;;;;;;5036917;28;19920;-64
2022/12/12 03:33:00;;;;;;;;;;;;;;;;;;5047353;28;21357;-64
2022/12/12 03:35:26;;;;;;;;;;;;;;;;;;5030992;28;20392;-64
2022/12/12 03:37:52;;;;;;;;;;;;;;;;;;5046296;28;19937;-64
2022/12/12 03:40:17;;;;;;;;;;;;;;;;;;5033255;28;19983;-64
2022/12/12 03:42:42;;;;;;;;;;;;;;;;;;5049180;28;20002;-63
2022/12/12 03:45:08;;;;;;;;;;;;;;;;;;5015959;28;20462;-63
2022/12/12 03:47:36;;;;;;;;;;;;;;;;;;5048609;28;19952;-63
2022/12/12 03:50:01;;;;;;;;;;;;;;;;;;5044773;28;19963;-64
2022/12/12 03:52:27;;;;;;;;;;;;;;;;;;5048074;28;20359;-64
2022/12/12 03:54:52;;;;;;;;;;;;;;;;;;5017871;28;20346;-64
2022/12/12 03:57:17;;;;;;;;;;;;;;;;;;5045825;28;20016;-64
2022/12/12 03:59:43;;;;;;;;;;;;;;;;;;5048708;28;19922;-64
2022/12/12 04:02:08;;;;;;;;;;;;;;;;;;5049904;28;20387;-64
2022/12/12 04:04:34;;;;;;;;;;;;;;;;;;5032155;28;20389;-63
2022/12/12 04:07:00;;;;;;;;;;;;;;;;;;5045379;28;19954;-63
2022/12/12 04:15:26;;;;;;;;;;;;;;;;;;5046831;28;21744;-63
2022/12/12 04:17:51;;;;;;;;;;;;;;;;;;5030437;28;20073;-62
2022/12/12 04:23:16;;;;;;;;;;;;;;;;;;5048979;28;20494;-65
2022/12/12 04:26:37;;;;;;;;;;;;;;;;;;5028657;28;19969;-65
2022/12/12 04:28:26;;;;;;;;;;;;;;;;;;5030559;28;19920;-65
2022/12/12 04:30:52;;;;;;;;;;;;;;;;;;5045746;28;19930;-64
2022/12/12 04:33:18;;;;;;;;;;;;;;;;;;5046411;28;20027;-63
2022/12/12 04:35:43;;;;;;;;;;;;;;;;;;5029099;28;19988;-64
2022/12/12 04:38:09;;;;;;;;;;;;;;;;;;5033394;28;19927;-64
2022/12/12 04:40:36;;;;;;;;;;;;;;;;;;5047614;28;20382;-64
2022/12/12 04:43:05;;;;;;;;;;;;;;;;;;5031799;28;20043;-63
2022/12/12 04:45:30;;;;;;;;;;;;;;;;;;5045656;28;19926;-63
2022/12/12 04:47:56;;;;;;;;;;;;;;;;;;5042685;28;20019;-63
2022/12/12 04:50:21;;;;;;;;;;;;;;;;;;5045067;28;20332;-63
2022/12/12 04:52:47;;;;;;;;;;;;;;;;;;5048178;28;19920;-63
2022/12/12 04:55:13;;;;;;;;;;;;;;;;;;5044917;28;19920;-63
2022/12/12 04:57:38;;;;;;;;;;;;;;;;;;5054068;28;20501;-63
2022/12/12 05:00:04;;;;;;;;;;;;;;;;;;5045018;28;20325;-63
2022/12/12 05:02:29;;;;;;;;;;;;;;;;;;5021085;28;19921;-63
2022/12/12 05:04:54;;;;;;;;;;;;;;;;;;5042036;28;19950;-63
2022/12/12 05:07:21;;;;;;;;;;;;;;;;;;5054654;28;19930;-63
2022/12/12 05:09:46;;;;;;;;;;;;;;;;;;5053920;28;20377;-63
2022/12/12 05:12:14;;;;;;;;;;;;;;;;;;5029724;28;19937;-63
2022/12/12 05:14:46;;;;;;;;;;;;;;;;;;4957797;28;19961;-62
2022/12/12 05:17:12;;;;;;;;;;;;;;;;;;4958337;28;19957;-63
2022/12/12 05:19:37;;;;;;;;;;;;;;;;;;4956826;28;20166;-63
2022/12/12 05:22:03;;;;;;;;;;;;;;;;;;5038731;28;20163;-63
2022/12/12 05:24:30;;;;;;;;;;;;;;;;;;5028190;28;19952;-63
2022/12/12 05:26:55;;;;;;;;;;;;;;;;;;4955230;28;20303;-63
2022/12/12 05:29:23;;;;;;;;;;;;;;;;;;5034471;28;19929;-62
2022/12/12 05:31:48;;;;;;;;;;;;;;;;;;4953969;28;19918;-63
2022/12/12 05:34:14;;;;;;;;;;;;;;;;;;4951424;28;19922;-63
2022/12/12 05:36:40;;;;;;;;;;;;;;;;;;4949837;28;20359;-63
2022/12/12 05:39:06;;;;;;;;;;;;;;;;;;4953738;28;20562;-62
2022/12/12 05:41:32;;;;;;;;;;;;;;;;;;5021322;28;19925;-62
2022/12/12 05:43:58;;;;;;;;;;;;;;;;;;4955469;28;19965;-62
2022/12/12 05:46:24;;;;;;;;;;;;;;;;;;4954679;28;20024;-62
2022/12/12 05:48:50;;;;;;;;;;;;;;;;;;4955772;28;20377;-62
2022/12/12 05:51:16;;;;;;;;;;;;;;;;;;5038539;28;19926;-63
2022/12/12 05:53:42;;;;;;;;;;;;;;;;;;4953227;28;20109;-63
2022/12/12 05:56:10;;;;;;;;;;;;;;;;;;5025520;28;19948;-63
2022/12/12 05:58:35;;;;;;;;;;;;;;;;;;4953883;28;19928;-62
2022/12/12 06:01:01;;;;;;;;;;;;;;;;;;4956279;28;19991;-62
2022/12/12 06:03:28;;;;;;;;;;;;;;;;;;5033685;28;20013;-63
2022/12/12 06:06:08;;;;;;;;;;;;;;;;;;5022670;28;19930;-62
2022/12/12 06:08:34;;;;;;;;;;;;;;;;;;4955529;28;20064;-62
2022/12/12 06:10:59;;;;;;;;;;;;;;;;;;4950864;28;19982;-61
2022/12/12 06:13:25;;;;;;;;;;;;;;;;;;5035385;28;19982;-62
2022/12/12 06:15:51;;;;;;;;;;;;;;;;;;5025291;28;19983;-64
2022/12/12 06:18:16;;;;;;;;;;;;;;;;;;5037920;28;19960;-64
2022/12/12 06:20:41;;;;;;;;;;;;;;;;;;5036333;28;20458;-62
2022/12/12 06:23:06;;;;;;;;;;;;;;;;;;5020947;28;20005;-62
2022/12/12 06:25:32;;;;;;;;;;;;;;;;;;5019607;28;19928;-63
2022/12/12 06:27:59;;;;;;;;;;;;;;;;;;5018739;28;20338;-62
2022/12/12 06:30:25;;;;;;;;;;;;;;;;;;5010848;28;19927;-63
2022/12/12 06:32:53;;;;;;;;;;;;;;;;;;5037081;28;19921;-63
2022/12/12 06:35:19;;;;;;;;;;;;;;;;;;5020182;28;20311;-63
2022/12/12 06:37:44;;;;;;;;;;;;;;;;;;5019761;28;19947;-62
2022/12/12 06:40:12;;;;;;;;;;;;;;;;;;5020059;28;19917;-63
2022/12/12 06:42:40;;;;;;;;;;;;;;;;;;5036799;28;19931;-63
2022/12/12 06:45:08;;;;;;;;;;;;;;;;;;5038786;28;19924;-63
2022/12/12 06:47:33;;;;;;;;;;;;;;;;;;5007972;28;19931;-63
2022/12/12 06:49:59;;;;;;;;;;;;;;;;;;5021425;28;20114;-63
2022/12/12 06:52:27;;;;;;;;;;;;;;;;;;5037896;28;19921;-63
2022/12/12 06:54:53;;;;;;;;;;;;;;;;;;5035907;28;20364;-63
2022/12/12 06:57:18;;;;;;;;;;;;;;;;;;5003564;28;20049;-62
2022/12/12 06:59:46;;;;;;;;;;;;;;;;;;5008817;28;20362;-62
2022/12/12 07:02:13;;;;;;;;;;;;;;;;;;5005043;28;19920;-62
2022/12/12 07:07:56;;;;;;;;;;;;;;;;;;5034999;28;20192;-62
2022/12/12 07:10:21;;;;;;;;;;;;;;;;;;5000313;28;20537;-62
2022/12/12 07:12:46;;;;;;;;;;;;;;;;;;5034503;28;19939;-61
2022/12/12 07:15:12;;;;;;;;;;;;;;;;;;5045294;28;20375;-62
2022/12/12 07:17:40;;;;;;;;;;;;;;;;;;5053005;28;20031;-62
2022/12/12 07:20:06;;;;;;;;;;;;;;;;;;5053729;28;19912;-62
2022/12/12 07:22:31;;;;;;;;;;;;;;;;;;5054791;28;19923;-62
2022/12/12 07:24:57;;;;;;;;;;;;;;;;;;5032725;28;21726;-62
2022/12/12 07:27:23;;;;;;;;;;;;;;;;;;5040052;28;19927;-62
2022/12/12 07:29:50;;;;;;;;;;;;;;;;;;5037368;28;20063;-62
2022/12/12 07:32:16;;;;;;;;;;;;;;;;;;5049890;28;20597;-62
2022/12/12 07:34:41;;;;;;;;;;;;;;;;;;5036790;28;20183;-61
2022/12/12 07:37:06;;;;;;;;;;;;;;;;;;5050260;28;20459;-61
2022/12/12 07:39:32;;;;;;;;;;;;;;;;;;5021045;28;19923;-62
2022/12/12 07:41:57;;;;;;;;;;;;;;;;;;5052956;28;19924;-62
2022/12/12 07:44:23;;;;;;;;;;;;;;;;;;5037079;28;19936;-61
2022/12/12 07:46:48;;;;;;;;;;;;;;;;;;5036095;28;19931;-61
2022/12/12 07:49:14;;;;;;;;;;;;;;;;;;5041728;28;20066;-61
2022/12/12 07:51:39;;;;;;;;;;;;;;;;;;5054096;28;19916;-62
2022/12/12 07:54:05;;;;;;;;;;;;;;;;;;5049683;28;19921;-61
2022/12/12 07:56:30;;;;;;;;;;;;;;;;;;5050643;28;19916;-63
2022/12/12 07:58:56;;;;;;;;;;;;;;;;;;5054135;28;19927;-62
2022/12/12 08:01:21;;;;;;;;;;;;;;;;;;5035749;28;20272;-62
2022/12/12 08:03:46;;;;;;;;;;;;;;;;;;5021021;28;20633;-61
2022/12/12 08:06:11;;;;;;;;;;;;;;;;;;5037357;28;19920;-62
2022/12/12 08:08:39;;;;;;;;;;;;;;;;;;5041924;28;19916;-64
2022/12/12 08:11:05;;;;;;;;;;;;;;;;;;5052648;28;20179;-62
2022/12/12 08:13:30;;;;;;;;;;;;;;;;;;5050298;28;20426;-63
2022/12/12 08:15:58;;;;;;;;;;;;;;;;;;5019807;28;20097;-62
2022/12/12 08:18:26;;;;;;;;;;;;;;;;;;5032307;28;19924;-63
2022/12/12 08:20:54;;;;;;;;;;;;;;;;;;5052916;28;19925;-63
2022/12/12 08:23:19;;;;;;;;;;;;;;;;;;5051810;28;20027;-63
2022/12/12 08:25:44;;;;;;;;;;;;;;;;;;5053227;28;19921;-62
2022/12/12 08:28:10;;;;;;;;;;;;;;;;;;5032482;28;20399;-61
2022/12/12 08:30:35;;;;;;;;;;;;;;;;;;5035370;28;19953;-62
2022/12/12 08:33:01;;;;;;;;;;;;;;;;;;5031236;28;19927;-61
2022/12/12 08:35:26;;;;;;;;;;;;;;;;;;5033991;28;20075;-61
2022/12/12 08:37:51;;;;;;;;;;;;;;;;;;5052887;28;19932;-62
2022/12/12 08:40:17;;;;;;;;;;;;;;;;;;5054554;28;20462;-61
2022/12/12 08:42:42;;;;;;;;;;;;;;;;;;5037078;28;19930;-61
2022/12/12 08:45:07;;;;;;;;;;;;;;;;;;5049408;28;19931;-61
2022/12/12 08:47:35;;;;;;;;;;;;;;;;;;5052297;28;20635;-64
2022/12/12 08:50:03;;;;;;;;;;;;;;;;;;5051138;28;19920;-63
2022/12/12 08:52:33;;;;;;;;;;;;;;;;;;5047731;28;19931;-63
2022/12/12 08:54:59;;;;;;;;;;;;;;;;;;5036704;28;19959;-63
2022/12/12 08:57:27;;;;;;;;;;;;;;;;;;5050955;28;19928;-63
2022/12/12 08:59:54;;;;;;;;;;;;;;;;;;5053385;28;19927;-63
2022/12/12 09:02:22;;;;;;;;;;;;;;;;;;5030045;28;19920;-63
2022/12/12 09:04:47;;;;;;;;;;;;;;;;;;5053288;28;19927;-63
2022/12/12 09:07:15;;;;;;;;;;;;;;;;;;5032113;28;19924;-63
2022/12/12 09:09:43;;;;;;;;;;;;;;;;;;5053933;28;19931;-63
2022/12/12 09:12:10;;;;;;;;;;;;;;;;;;5035640;28;19924;-63
2022/12/12 09:14:40;;;;;;;;;;;;;;;;;;5019945;28;19932;-63
2022/12/12 09:17:08;;;;;;;;;;;;;;;;;;5052317;28;19947;-63
2022/12/12 09:19:33;;;;;;;;;;;;;;;;;;5050243;28;20671;-64
2022/12/12 09:21:59;;;;;;;;;;;;;;;;;;5036164;28;19920;-63
2022/12/12 09:24:24;;;;;;;;;;;;;;;;;;5053589;28;19928;-64
2022/12/12 09:26:52;;;;;;;;;;;;;;;;;;5033262;28;20388;-63
2022/12/12 09:29:22;;;;;;;;;;;;;;;;;;5034216;28;21375;-64
2022/12/12 09:31:47;;;;;;;;;;;;;;;;;;5018421;28;20043;-63
2022/12/12 09:34:13;;;;;;;;;;;;;;;;;;5052915;28;20063;-64
2022/12/12 09:36:39;;;;;;;;;;;;;;;;;;5038207;28;20036;-63
2022/12/12 09:39:04;;;;;;;;;;;;;;;;;;5036830;28;20235;-64
2022/12/12 09:41:30;;;;;;;;;;;;;;;;;;5053988;28;19959;-64
2022/12/12 09:43:58;;;;;;;;;;;;;;;;;;5040013;28;20015;-64
2022/12/12 09:46:24;;;;;;;;;;;;;;;;;;5037777;28;19920;-64
2022/12/12 09:48:50;;;;;;;;;;;;;;;;;;5056086;28;20779;-64
2022/12/12 09:51:15;;;;;;;;;;;;;;;;;;5039017;28;20456;-64
2022/12/12 09:53:40;;;;;;;;;;;;;;;;;;5040308;28;19924;-64
2022/12/12 09:56:06;;;;;;;;;;;;;;;;;;5034550;28;19920;-63
2022/12/12 09:58:32;;;;;;;;;;;;;;;;;;5039634;28;19971;-64
2022/12/12 10:00:58;;;;;;;;;;;;;;;;;;5023373;28;19917;-62
2022/12/12 10:03:23;;;;;;;;;;;;;;;;;;5039435;28;19922;-63
2022/12/12 10:05:48;;;;;;;;;;;;;;;;;;5054900;28;19935;-64
2022/12/12 10:08:14;;;;;;;;;;;;;;;;;;5041957;28;19920;-63
2022/12/12 10:10:40;;;;;;;;;;;;;;;;;;5055726;28;19985;-63
2022/12/12 10:13:08;;;;;;;;;;;;;;;;;;5040660;28;19931;-63
2022/12/12 10:15:36;;;;;;;;;;;;;;;;;;5052887;28;19924;-63
2022/12/12 10:18:01;;;;;;;;;;;;;;;;;;5055715;28;20316;-63
2022/12/12 10:20:26;;;;;;;;;;;;;;;;;;5056081;28;20682;-64
2022/12/12 10:22:52;;;;;;;;;;;;;;;;;;5041425;28;19920;-63
2022/12/12 10:25:17;;;;;;;;;;;;;;;;;;5051857;28;19932;-63
2022/12/12 10:27:42;;;;;;;;;;;;;;;;;;5056531;28;19925;-63
2022/12/12 10:30:09;;;;;;;;;;;;;;;;;;5036898;28;19919;-64
2022/12/12 10:32:34;;;;;;;;;;;;;;;;;;5055756;28;19931;-63
2022/12/12 10:35:00;;;;;;;;;;;;;;;;;;5056133;28;20458;-63
2022/12/12 10:37:27;;;;;;;;;;;;;;;;;;5055626;28;19923;-62
2022/12/12 10:39:52;;;;;;;;;;;;;;;;;;5039013;28;19920;-63
2022/12/12 10:42:18;;;;;;;;;;;;;;;;;;5039694;28;19938;-63
2022/12/12 10:44:44;;;;;;;;;;;;;;;;;;5056254;28;19971;-63
2022/12/12 10:47:10;;;;;;;;;;;;;;;;;;5054222;28;19989;-65
2022/12/12 10:49:35;;;;;;;;;;;;;;;;;;5042994;28;19955;-62
2022/12/12 10:52:03;;;;;;;;;;;;;;;;;;5056026;28;19927;-62
2022/12/12 10:54:29;;;;;;;;;;;;;;;;;;5053608;28;19941;-64
2022/12/12 10:56:55;;;;;;;;;;;;;;;;;;5054143;28;19920;-64
2022/12/12 10:59:20;;;;;;;;;;;;;;;;;;5040637;28;19941;-63
2022/12/12 11:01:49;;;;;;;;;;;;;;;;;;5052308;28;20280;-63
2022/12/12 11:04:14;;;;;;;;;;;;;;;;;;5035805;28;19925;-63
2022/12/12 11:06:40;;;;;;;;;;;;;;;;;;5049215;28;20324;-63
2022/12/12 11:09:05;;;;;;;;;;;;;;;;;;5024865;28;19927;-63
2022/12/12 11:11:30;;;;;;;;;;;;;;;;;;5048936;28;19916;-62
2022/12/12 11:13:55;;;;;;;;;;;;;;;;;;5054968;28;19947;-63
2022/12/12 11:16:21;;;;;;;;;;;;;;;;;;5022935;28;19927;-63
2022/12/12 11:18:47;;;;;;;;;;;;;;;;;;5020667;28;19920;-62
2022/12/12 11:21:12;;;;;;;;;;;;;;;;;;5049025;28;19938;-63
2022/12/12 11:23:38;;;;;;;;;;;;;;;;;;5019852;28;19927;-63
2022/12/12 11:26:03;;;;;;;;;;;;;;;;;;5054118;28;19969;-63
2022/12/12 11:28:31;;;;;;;;;;;;;;;;;;5040464;28;19936;-64
2022/12/12 11:30:56;;;;;;;;;;;;;;;;;;5034172;28;19994;-64
2022/12/12 11:33:22;;;;;;;;;;;;;;;;;;5053601;28;19912;-64
2022/12/12 11:35:50;;;;;;;;;;;;;;;;;;5051937;28;19927;-64
2022/12/12 11:38:15;;;;;;;;;;;;;;;;;;5047875;28;20054;-63
2022/12/12 11:40:40;;;;;;;;;;;;;;;;;;5032404;28;19966;-64
2022/12/12 11:43:06;;;;;;;;;;;;;;;;;;5053667;28;20587;-63
2022/12/12 11:45:32;;;;;;;;;;;;;;;;;;5053801;28;19923;-63
2022/12/12 11:48:00;;;;;;;;;;;;;;;;;;5033201;28;19932;-63
2022/12/12 11:50:26;;;;;;;;;;;;;;;;;;5050720;28;19998;-64
2022/12/12 11:52:53;;;;;;;;;;;;;;;;;;5040261;28;20414;-64
2022/12/12 11:55:22;;;;;;;;;;;;;;;;;;5054418;28;20492;-64
2022/12/12 11:57:47;;;;;;;;;;;;;;;;;;5019220;28;19920;-64
2022/12/12 12:00:13;;;;;;;;;;;;;;;;;;5033773;28;20520;-64
2022/12/12 12:02:39;;;;;;;;;;;;;;;;;;5037972;28;19927;-63
2022/12/12 12:05:04;;;;;;;;;;;;;;;;;;5016748;28;19924;-63
2022/12/12 12:07:32;;;;;;;;;;;;;;;;;;5050014;28;20539;-64
2022/12/12 12:10:00;;;;;;;;;;;;;;;;;;5019731;28;20360;-64
2022/12/12 12:12:26;;;;;;;;;;;;;;;;;;5038209;28;19956;-64
2022/12/12 12:14:51;;;;;;;;;;;;;;;;;;5038556;28;19929;-64
2022/12/12 12:17:19;;;;;;;;;;;;;;;;;;5053256;28;19927;-64
2022/12/12 12:19:45;;;;;;;;;;;;;;;;;;5035355;28;20332;-64
2022/12/12 12:22:13;;;;;;;;;;;;;;;;;;5032620;28;21467;-64
2022/12/12 12:24:40;;;;;;;;;;;;;;;;;;5022222;28;21631;-64
2022/12/12 12:27:06;;;;;;;;;;;;;;;;;;5052978;28;19916;-64
2022/12/12 12:29:31;;;;;;;;;;;;;;;;;;5037851;28;19985;-63
2022/12/12 12:31:56;;;;;;;;;;;;;;;;;;5055071;28;19947;-63
2022/12/12 12:34:24;;;;;;;;;;;;;;;;;;5036148;28;20292;-62
2022/12/12 12:36:52;;;;;;;;;;;;;;;;;;5047798;28;21550;-63
2022/12/12 12:39:17;;;;;;;;;;;;;;;;;;5038912;28;19920;-63
2022/12/12 12:41:45;;;;;;;;;;;;;;;;;;5036204;28;19966;-63
2022/12/12 12:44:11;;;;;;;;;;;;;;;;;;5022657;28;20350;-61
2022/12/12 12:46:36;;;;;;;;;;;;;;;;;;5052890;28;19920;-63
2022/12/12 12:49:01;;;;;;;;;;;;;;;;;;5036544;28;20407;-62
2022/12/12 12:51:29;;;;;;;;;;;;;;;;;;5049948;28;19928;-62
2022/12/12 12:53:55;;;;;;;;;;;;;;;;;;5035255;28;19921;-62
2022/12/12 12:56:22;;;;;;;;;;;;;;;;;;5019258;28;19946;-62
2022/12/12 12:58:50;;;;;;;;;;;;;;;;;;5021475;28;19913;-62
2022/12/12 13:01:17;;;;;;;;;;;;;;;;;;5035403;28;20410;-63
2022/12/12 13:03:43;;;;;;;;;;;;;;;;;;5016390;28;19924;-62
2022/12/12 13:06:11;;;;;;;;;;;;;;;;;;5033664;28;20117;-64
2022/12/12 13:08:41;;;;;;;;;;;;;;;;;;5043504;28;20157;-63
2022/12/12 13:11:09;;;;;;;;;;;;;;;;;;5027307;28;19924;-64
2022/12/12 13:13:34;;;;;;;;;;;;;;;;;;5048322;28;19935;-63
2022/12/12 13:15:59;;;;;;;;;;;;;;;;;;5034739;28;20247;-63
2022/12/12 13:18:27;;;;;;;;;;;;;;;;;;5017100;28;19916;-62
2022/12/12 13:20:52;;;;;;;;;;;;;;;;;;5034341;28;19924;-63
2022/12/12 13:23:17;;;;;;;;;;;;;;;;;;5017146;28;19993;-63
2022/12/12 13:25:42;;;;;;;;;;;;;;;;;;5032108;28;19924;-63
2022/12/12 13:28:10;;;;;;;;;;;;;;;;;;5048022;28;19920;-64
2022/12/12 13:30:36;;;;;;;;;;;;;;;;;;5045976;28;19920;-64
2022/12/12 13:33:01;;;;;;;;;;;;;;;;;;5027408;28;19955;-63
2022/12/12 13:35:29;;;;;;;;;;;;;;;;;;5050089;28;20213;-63
2022/12/12 13:37:56;;;;;;;;;;;;;;;;;;5017363;28;20031;-63
2022/12/12 13:40:24;;;;;;;;;;;;;;;;;;5053561;28;19920;-63
2022/12/12 13:42:52;;;;;;;;;;;;;;;;;;5052995;28;20545;-63
2022/12/12 13:45:21;;;;;;;;;;;;;;;;;;5050580;28;19947;-64
2022/12/12 13:47:46;;;;;;;;;;;;;;;;;;5038614;28;20037;-65
2022/12/12 13:50:11;;;;;;;;;;;;;;;;;;5040956;28;19932;-64
2022/12/12 13:52:39;;;;;;;;;;;;;;;;;;5056267;28;19920;-63
2022/12/12 13:55:05;;;;;;;;;;;;;;;;;;5038769;28;20192;-63
2022/12/12 13:57:32;;;;;;;;;;;;;;;;;;5023462;28;20074;-63
2022/12/12 13:59:58;;;;;;;;;;;;;;;;;;5021959;28;19927;-63
2022/12/12 14:02:24;;;;;;;;;;;;;;;;;;5056743;28;19928;-63
2022/12/12 14:04:52;;;;;;;;;;;;;;;;;;5043289;28;19927;-63
2022/12/12 14:07:17;;;;;;;;;;;;;;;;;;5049928;28;20366;-64
2022/12/12 14:09:42;;;;;;;;;;;;;;;;;;5052767;28;19916;-62
2022/12/12 14:12:08;;;;;;;;;;;;;;;;;;5051290;28;20046;-63
2022/12/12 14:14:35;;;;;;;;;;;;;;;;;;5036265;28;20493;-63
2022/12/12 14:17:01;;;;;;;;;;;;;;;;;;5031987;28;19969;-64
2022/12/12 14:19:26;;;;;;;;;;;;;;;;;;5053716;28;19974;-64
2022/12/12 14:21:51;;;;;;;;;;;;;;;;;;5051040;28;20571;-63
2022/12/12 14:24:16;;;;;;;;;;;;;;;;;;5034177;28;19931;-63
2022/12/12 14:26:42;;;;;;;;;;;;;;;;;;5048708;28;19978;-63
2022/12/12 14:29:09;;;;;;;;;;;;;;;;;;5035016;28;19924;-63
2022/12/12 14:31:37;;;;;;;;;;;;;;;;;;5039072;28;19927;-63
2022/12/12 14:34:02;;;;;;;;;;;;;;;;;;5051601;28;20046;-64
2022/12/12 14:36:28;;;;;;;;;;;;;;;;;;5037337;28;20556;-63
2022/12/12 14:38:53;;;;;;;;;;;;;;;;;;5039834;28;19923;-63
2022/12/12 14:41:19;;;;;;;;;;;;;;;;;;5056033;28;19921;-62
2022/12/12 14:43:44;;;;;;;;;;;;;;;;;;5054952;28;21771;-63
2022/12/12 14:46:12;;;;;;;;;;;;;;;;;;5009701;28;19920;-63
2022/12/12 14:48:38;;;;;;;;;;;;;;;;;;5053411;28;20485;-64
2022/12/12 14:51:03;;;;;;;;;;;;;;;;;;5053580;28;20483;-64
2022/12/12 14:53:28;;;;;;;;;;;;;;;;;;5047504;28;19912;-64
2022/12/12 14:55:56;;;;;;;;;;;;;;;;;;5049925;28;19927;-63
2022/12/12 14:58:21;;;;;;;;;;;;;;;;;;5025451;28;21524;-63
2022/12/12 15:00:46;;;;;;;;;;;;;;;;;;5052456;28;19924;-63
2022/12/12 15:03:12;;;;;;;;;;;;;;;;;;5033266;28;19920;-64
2022/12/12 15:05:37;;;;;;;;;;;;;;;;;;5046229;28;19924;-63
2022/12/12 15:08:03;;;;;;;;;;;;;;;;;;5048756;28;20010;-63
2022/12/12 15:10:29;;;;;;;;;;;;;;;;;;5050833;28;19920;-63
2022/12/12 15:12:57;;;;;;;;;;;;;;;;;;5048872;28;20458;-63
2022/12/12 15:15:23;;;;;;;;;;;;;;;;;;5050395;28;19931;-62
2022/12/12 15:17:48;;;;;;;;;;;;;;;;;;5023909;28;20700;-62
2022/12/12 15:20:13;;;;;;;;;;;;;;;;;;5051375;28;19935;-64
2022/12/12 15:22:41;;;;;;;;;;;;;;;;;;5051095;28;19924;-61
2022/12/12 15:25:10;;;;;;;;;;;;;;;;;;5051146;28;20029;-62
2022/12/12 15:27:36;;;;;;;;;;;;;;;;;;5020675;28;20078;-62
2022/12/12 15:30:01;;;;;;;;;;;;;;;;;;5033139;28;19920;-62
2022/12/12 15:32:27;;;;;;;;;;;;;;;;;;5034559;28;20415;-61
2022/12/12 15:34:54;;;;;;;;;;;;;;;;;;5034312;28;19973;-61
2022/12/12 15:37:20;;;;;;;;;;;;;;;;;;5037444;28;19920;-62
2022/12/12 15:39:46;;;;;;;;;;;;;;;;;;5036057;28;19973;-62
2022/12/12 15:42:13;;;;;;;;;;;;;;;;;;5027845;28;19925;-62
2022/12/12 15:44:41;;;;;;;;;;;;;;;;;;5050599;28;19924;-61
2022/12/12 15:47:07;;;;;;;;;;;;;;;;;;5050343;28;20020;-61
2022/12/12 15:49:37;;;;;;;;;;;;;;;;;;5042556;28;20295;-61
2022/12/12 15:52:03;;;;;;;;;;;;;;;;;;5049358;28;19920;-59
2022/12/12 15:54:31;;;;;;;;;;;;;;;;;;5052211;28;20079;-60
2022/12/12 15:56:59;;;;;;;;;;;;;;;;;;5028922;28;21487;-61
2022/12/12 15:59:24;;;;;;;;;;;;;;;;;;5046237;28;19927;-61
2022/12/12 16:01:49;;;;;;;;;;;;;;;;;;5029823;28;19920;-61
2022/12/12 16:04:15;;;;;;;;;;;;;;;;;;5050777;28;20012;-60
2022/12/12 16:06:42;;;;;;;;;;;;;;;;;;5032555;28;20278;-60
2022/12/12 16:09:10;;;;;;;;;;;;;;;;;;5029398;28;19916;-60
2022/12/12 16:11:36;;;;;;;;;;;;;;;;;;5030618;28;20002;-62
2022/12/12 16:14:01;;;;;;;;;;;;;;;;;;5027722;28;19989;-60
2022/12/12 16:16:29;;;;;;;;;;;;;;;;;;5054547;28;21803;-60
2022/12/12 16:18:56;;;;;;;;;;;;;;;;;;5050174;28;20425;-60
2022/12/12 16:21:22;;;;;;;;;;;;;;;;;;5014308;28;20453;-60
2022/12/12 16:23:49;;;;;;;;;;;;;;;;;;5049996;28;20019;-61
2022/12/12 16:26:17;;;;;;;;;;;;;;;;;;5030687;28;20336;-61
2022/12/12 16:28:43;;;;;;;;;;;;;;;;;;5047817;28;20264;-60
2022/12/12 16:31:08;;;;;;;;;;;;;;;;;;5031665;28;19916;-61
2022/12/12 16:33:34;;;;;;;;;;;;;;;;;;5028931;28;20118;-61
2022/12/12 16:36:04;;;;;;;;;;;;;;;;;;5052293;28;19955;-59
2022/12/12 16:38:30;;;;;;;;;;;;;;;;;;5037680;28;19939;-60
2022/12/12 16:40:57;;;;;;;;;;;;;;;;;;5047715;28;20387;-62
2022/12/12 16:43:26;;;;;;;;;;;;;;;;;;5045139;28;20082;-61
2022/12/12 16:45:56;;;;;;;;;;;;;;;;;;5032115;28;20500;-61
2022/12/12 16:48:24;;;;;;;;;;;;;;;;;;5027119;28;19956;-61
2022/12/12 16:50:50;;;;;;;;;;;;;;;;;;5049318;28;19955;-61
2022/12/12 16:53:15;;;;;;;;;;;;;;;;;;5046134;28;20403;-61
2022/12/12 16:55:40;;;;;;;;;;;;;;;;;;5055022;28;19971;-60
2022/12/12 16:58:08;;;;;;;;;;;;;;;;;;5037483;28;19924;-60
2022/12/12 17:00:37;;;;;;;;;;;;;;;;;;5034105;28;19981;-60